createdAt,value
2018-02-06T00:00:19.405Z,1015.71
2018-02-06T00:01:18.315Z,1015.67
2018-02-06T00:02:19.322Z,1015.65
2018-02-06T00:03:18.249Z,1015.57
2018-02-06T00:04:18.314Z,1015.57
2018-02-06T00:05:18.171Z,1015.53
2018-02-06T00:06:18.219Z,1015.53
2018-02-06T00:07:18.102Z,1015.53
2018-02-06T00:08:19.152Z,1015.51
2018-02-06T00:09:18.040Z,1015.48
2018-02-06T00:10:19.069Z,1015.46
2018-02-06T00:11:17.971Z,1015.46
2018-02-06T00:12:18.052Z,1015.45
2018-02-06T00:13:17.898Z,1015.42
2018-02-06T00:14:17.957Z,1015.42
2018-02-06T00:15:17.830Z,1015.38
2018-02-06T00:16:17.867Z,1015.37
2018-02-06T00:17:17.757Z,1015.38
2018-02-06T00:18:17.783Z,1015.31
2018-02-06T00:19:17.691Z,1015.33
2018-02-06T00:20:17.687Z,1015.25
2018-02-06T00:21:17.629Z,1015.25
2018-02-06T00:22:17.596Z,1015.20
2018-02-06T00:23:17.552Z,1015.15
2018-02-06T00:24:17.609Z,1015.12
2018-02-06T00:25:17.479Z,1015.03
2018-02-06T00:26:17.521Z,1015.06
2018-02-06T00:27:17.415Z,1015.03
2018-02-06T00:28:17.432Z,1015.00
2018-02-06T00:29:17.341Z,1015.03
2018-02-06T00:30:17.344Z,1014.98
2018-02-06T00:31:17.270Z,1014.99
2018-02-06T00:32:17.256Z,1014.96
2018-02-06T00:33:17.209Z,1014.93
2018-02-06T00:34:17.266Z,1014.94
2018-02-06T00:35:17.134Z,1014.96
2018-02-06T00:36:17.178Z,1014.93
2018-02-06T00:37:17.065Z,1014.92
2018-02-06T00:38:17.087Z,1014.90
2018-02-06T00:39:16.992Z,1014.88
2018-02-06T00:40:16.998Z,1014.88
2018-02-06T00:41:16.925Z,1014.89
2018-02-06T00:42:16.908Z,1014.83
2018-02-06T00:43:16.857Z,1014.86
2018-02-06T00:44:16.922Z,1014.88
2018-02-06T00:45:16.786Z,1014.86
2018-02-06T00:46:16.834Z,1014.85
2018-02-06T00:47:16.712Z,1014.77
2018-02-06T00:48:16.742Z,1014.78
2018-02-06T00:49:16.647Z,1014.79
2018-02-06T00:50:16.659Z,1014.77
2018-02-06T00:51:16.572Z,1014.76
2018-02-06T00:52:16.559Z,1014.75
2018-02-06T00:53:16.502Z,1014.73
2018-02-06T00:54:17.517Z,1014.71
2018-02-06T00:55:16.433Z,1014.75
2018-02-06T00:56:16.490Z,1014.71
2018-02-06T00:57:16.363Z,1014.68
2018-02-06T00:58:16.329Z,1014.66
2018-02-06T00:59:16.454Z,1014.66
2018-02-06T01:00:16.259Z,1014.63
2018-02-06T01:01:16.365Z,1014.62
2018-02-06T01:02:16.187Z,1014.65
2018-02-06T01:03:16.279Z,1014.60
2018-02-06T01:04:16.122Z,1014.59
2018-02-06T01:05:16.187Z,1014.58
2018-02-06T01:06:16.048Z,1014.54
2018-02-06T01:07:16.098Z,1014.52
2018-02-06T01:08:15.977Z,1014.52
2018-02-06T01:09:16.010Z,1014.47
2018-02-06T01:10:15.912Z,1014.50
2018-02-06T01:11:16.024Z,1014.53
2018-02-06T01:12:15.836Z,1014.52
2018-02-06T01:13:15.934Z,1014.50
2018-02-06T01:14:15.772Z,1014.47
2018-02-06T01:15:15.846Z,1014.44
2018-02-06T01:16:15.700Z,1014.43
2018-02-06T01:17:15.760Z,1014.43
2018-02-06T01:18:15.625Z,1014.39
2018-02-06T01:19:15.672Z,1014.40
2018-02-06T01:20:15.559Z,1014.36
2018-02-06T01:21:15.682Z,1014.41
2018-02-06T01:22:15.484Z,1014.37
2018-02-06T01:23:15.491Z,1014.40
2018-02-06T01:24:15.417Z,1014.34
2018-02-06T01:25:15.504Z,1014.31
2018-02-06T01:26:15.354Z,1014.32
2018-02-06T01:27:15.413Z,1014.32
2018-02-06T01:28:15.275Z,1014.30
2018-02-06T01:29:15.321Z,1014.28
2018-02-06T01:30:15.204Z,1014.32
2018-02-06T01:31:15.341Z,1014.29
2018-02-06T01:32:15.138Z,1014.23
2018-02-06T01:33:15.246Z,1014.28
2018-02-06T01:34:15.063Z,1014.22
2018-02-06T01:35:15.162Z,1014.25
2018-02-06T01:36:14.998Z,1014.19
2018-02-06T01:37:15.073Z,1014.13
2018-02-06T01:38:14.931Z,1014.08
2018-02-06T01:39:15.087Z,1014.02
2018-02-06T01:40:14.855Z,1014.03
2018-02-06T01:41:15.002Z,1013.99
2018-02-06T01:42:14.785Z,1013.97
2018-02-06T01:43:14.915Z,1013.99
2018-02-06T01:44:14.717Z,1013.95
2018-02-06T01:45:14.819Z,1013.91
2018-02-06T01:46:14.646Z,1013.89
2018-02-06T01:47:14.731Z,1013.92
2018-02-06T01:48:14.572Z,1013.90
2018-02-06T01:49:14.638Z,1013.90
2018-02-06T01:50:14.503Z,1013.89
2018-02-06T01:51:14.559Z,1013.80
2018-02-06T01:52:14.439Z,1013.79
2018-02-06T01:53:14.570Z,1013.80
2018-02-06T01:54:14.362Z,1013.82
2018-02-06T01:55:14.481Z,1013.83
2018-02-06T01:56:14.294Z,1013.76
2018-02-06T01:57:14.387Z,1013.80
2018-02-06T01:58:14.221Z,1013.78
2018-02-06T01:59:14.301Z,1013.75
2018-02-06T02:00:14.153Z,1013.67
2018-02-06T02:01:14.209Z,1013.68
2018-02-06T02:02:14.086Z,1013.62
2018-02-06T02:03:14.226Z,1013.64
2018-02-06T02:04:14.019Z,1013.57
2018-02-06T02:05:14.139Z,1013.60
2018-02-06T02:06:13.941Z,1013.57
2018-02-06T02:07:14.048Z,1013.55
2018-02-06T02:08:13.878Z,1013.54
2018-02-06T02:09:13.958Z,1013.55
2018-02-06T02:10:13.802Z,1013.55
2018-02-06T02:11:13.871Z,1013.49
2018-02-06T02:12:13.726Z,1013.52
2018-02-06T02:13:13.882Z,1013.48
2018-02-06T02:14:13.661Z,1013.45
2018-02-06T02:15:13.793Z,1013.43
2018-02-06T02:16:13.586Z,1013.41
2018-02-06T02:17:13.726Z,1013.41
2018-02-06T02:18:13.517Z,1013.35
2018-02-06T02:19:13.615Z,1013.37
2018-02-06T02:20:13.447Z,1013.35
2018-02-06T02:21:13.528Z,1013.30
2018-02-06T02:22:13.374Z,1013.26
2018-02-06T02:23:13.438Z,1013.26
2018-02-06T02:24:13.307Z,1013.25
2018-02-06T02:25:13.454Z,1013.24
2018-02-06T02:26:13.241Z,1013.24
2018-02-06T02:27:13.364Z,1013.24
2018-02-06T02:28:13.164Z,1013.18
2018-02-06T02:29:13.276Z,1013.11
2018-02-06T02:30:13.102Z,1013.16
2018-02-06T02:31:13.184Z,1013.16
2018-02-06T02:32:13.029Z,1013.19
2018-02-06T02:33:13.104Z,1013.20
2018-02-06T02:34:12.960Z,1013.18
2018-02-06T02:35:13.111Z,1013.20
2018-02-06T02:36:12.882Z,1013.20
2018-02-06T02:37:13.026Z,1013.19
2018-02-06T02:38:12.817Z,1013.15
2018-02-06T02:39:12.930Z,1013.11
2018-02-06T02:40:12.758Z,1013.11
2018-02-06T02:41:12.844Z,1013.09
2018-02-06T04:39:08.535Z,1012.21
2018-02-06T04:40:08.540Z,1012.22
2018-02-06T04:41:08.462Z,1012.19
2018-02-06T04:42:08.552Z,1012.23
2018-02-06T04:43:08.385Z,1012.17
2018-02-06T04:44:08.464Z,1012.20
2018-02-06T04:45:08.319Z,1012.19
2018-02-06T04:46:08.382Z,1012.19
2018-02-06T04:47:08.236Z,1012.14
2018-02-06T04:48:08.287Z,1012.11
2018-02-06T04:49:08.166Z,1012.08
2018-02-06T04:50:08.199Z,1012.08
2018-02-06T04:51:08.105Z,1012.09
2018-02-06T04:52:08.214Z,1012.09
2018-02-06T04:53:08.024Z,1012.06
2018-02-06T04:54:08.120Z,1012.08
2018-02-06T04:55:07.961Z,1012.11
2018-02-06T04:56:08.030Z,1012.09
2018-02-06T04:57:07.887Z,1012.07
2018-02-06T04:58:07.943Z,1012.06
2018-02-06T04:59:07.819Z,1012.01
2018-02-06T05:00:07.852Z,1012.04
2018-02-06T05:01:07.737Z,1012.04
2018-02-06T05:02:07.764Z,1012.09
2018-02-06T05:03:07.675Z,1012.04
2018-02-06T05:04:07.777Z,1011.99
2018-02-06T05:05:07.606Z,1011.97
2018-02-06T05:06:08.375Z,1012.00
2018-02-06T05:07:07.531Z,1012.02
2018-02-06T05:08:07.606Z,1011.96
2018-02-06T05:09:07.464Z,1011.96
2018-02-06T05:10:07.511Z,1011.94
2018-02-06T05:11:07.384Z,1011.89
2018-02-06T05:12:07.422Z,1011.91
2018-02-06T05:13:07.314Z,1011.90
2018-02-06T05:14:07.434Z,1011.85
2018-02-06T05:15:07.248Z,1011.90
2018-02-06T05:16:07.344Z,1011.83
2018-02-06T05:17:07.179Z,1011.88
2018-02-06T05:18:07.256Z,1011.89
2018-02-06T05:19:07.102Z,1011.87
2018-02-06T05:20:07.062Z,1011.85
2018-02-06T05:21:07.028Z,1011.90
2018-02-06T05:22:07.077Z,1011.87
2018-02-06T05:23:06.960Z,1011.85
2018-02-06T05:24:06.988Z,1011.84
2018-02-06T05:25:06.891Z,1011.88
2018-02-06T05:26:07.006Z,1011.86
2018-02-06T05:27:06.814Z,1011.85
2018-02-06T05:28:06.911Z,1011.82
2018-02-06T05:29:06.747Z,1011.81
2018-02-06T05:30:06.833Z,1011.80
2018-02-06T05:31:06.680Z,1011.80
2018-02-06T05:32:06.737Z,1011.77
2018-02-06T05:33:06.597Z,1011.76
2018-02-06T05:34:06.648Z,1011.74
2018-02-06T05:35:06.530Z,1011.74
2018-02-06T05:36:06.559Z,1011.74
2018-02-06T05:37:06.470Z,1011.71
2018-02-06T05:38:06.570Z,1011.73
2018-02-06T05:39:06.390Z,1011.71
2018-02-06T05:40:06.482Z,1011.68
2018-02-06T05:41:06.327Z,1011.70
2018-02-06T05:42:06.394Z,1011.66
2018-02-06T05:43:06.248Z,1011.62
2018-02-06T05:44:06.304Z,1011.61
2018-02-06T05:45:06.175Z,1011.62
2018-02-06T05:46:06.216Z,1011.57
2018-02-06T05:47:06.103Z,1011.56
2018-02-06T05:48:06.227Z,1011.55
2018-02-06T05:49:06.031Z,1011.52
2018-02-06T05:50:06.139Z,1011.52
2018-02-06T05:51:05.963Z,1011.43
2018-02-06T05:52:05.927Z,1011.39
2018-02-06T05:53:05.891Z,1011.39
2018-02-06T05:54:05.966Z,1011.37
2018-02-06T05:55:05.832Z,1011.36
2018-02-06T05:56:05.916Z,1011.34
2018-02-06T05:57:05.746Z,1011.28
2018-02-06T05:58:05.790Z,1011.28
2018-02-06T05:59:05.682Z,1011.29
2018-02-06T06:00:05.803Z,1011.29
2018-02-06T06:01:05.606Z,1011.26
2018-02-06T06:02:05.709Z,1011.31
2018-02-06T06:03:05.532Z,1011.33
2018-02-06T06:04:05.594Z,1011.31
2018-02-06T06:05:05.468Z,1011.32
2018-02-06T06:06:05.505Z,1011.29
2018-02-06T06:07:05.392Z,1011.28
2018-02-06T06:08:05.417Z,1011.28
2018-02-06T06:09:05.325Z,1011.26
2018-02-06T06:10:05.431Z,1011.21
2018-02-06T06:11:05.254Z,1011.24
2018-02-06T06:12:05.344Z,1011.21
2018-02-06T06:13:05.181Z,1011.23
2018-02-06T06:14:05.256Z,1011.24
2018-02-06T06:15:05.113Z,1011.20
2018-02-06T06:16:05.161Z,1011.19
2018-02-06T06:17:05.034Z,1011.16
2018-02-06T06:18:05.076Z,1011.15
2018-02-06T06:19:04.967Z,1011.10
2018-02-06T06:20:04.987Z,1011.12
2018-02-06T06:21:04.897Z,1011.05
2018-02-06T06:22:04.863Z,1011.01
2018-02-06T06:23:04.824Z,1011.01
2018-02-06T06:24:04.812Z,1010.94
2018-02-06T06:25:04.751Z,1010.97
2018-02-06T06:26:04.819Z,1010.95
2018-02-06T06:27:04.689Z,1011.00
2018-02-06T06:28:04.736Z,1010.97
2018-02-06T06:29:04.616Z,1010.97
2018-02-06T06:30:04.645Z,1010.90
2018-02-06T06:31:04.582Z,1010.88
2018-02-06T06:32:05.582Z,1010.91
2018-02-06T06:33:04.470Z,1010.89
2018-02-06T06:34:04.469Z,1010.87
2018-02-06T06:35:04.400Z,1010.84
2018-02-06T06:36:04.380Z,1010.86
2018-02-06T06:37:04.327Z,1010.86
2018-02-06T06:38:04.405Z,1010.91
2018-02-06T06:39:04.250Z,1010.87
2018-02-06T06:40:04.321Z,1010.87
2018-02-06T06:41:04.189Z,1010.90
2018-02-06T06:42:04.224Z,1010.90
2018-02-06T06:43:04.117Z,1010.88
2018-02-06T06:44:04.079Z,1010.96
2018-02-06T06:45:04.093Z,1010.93
2018-02-06T06:46:04.008Z,1010.93
2018-02-06T06:47:04.003Z,1010.92
2018-02-06T06:48:03.949Z,1010.94
2018-02-06T06:49:04.019Z,1010.90
2018-02-06T06:50:03.871Z,1010.87
2018-02-06T06:51:04.847Z,1010.83
2018-02-06T06:52:03.797Z,1010.84
2018-02-06T06:53:03.838Z,1010.79
2018-02-06T06:54:03.720Z,1010.81
2018-02-06T06:55:03.751Z,1010.81
2018-02-06T06:56:03.655Z,1010.88
2018-02-06T06:57:03.659Z,1010.82
2018-02-06T06:58:03.583Z,1010.84
2018-02-06T06:59:03.577Z,1010.82
2018-02-06T07:00:03.515Z,1010.81
2018-02-06T07:01:03.585Z,1010.78
2018-02-06T07:02:03.440Z,1010.80
2018-02-06T07:03:03.496Z,1010.82
2018-02-06T07:04:03.368Z,1010.85
2018-02-06T07:05:03.411Z,1010.83
2018-02-06T07:06:03.299Z,1010.83
2018-02-06T07:07:03.261Z,1010.83
2018-02-06T07:08:03.323Z,1010.81
2018-02-06T07:09:03.194Z,1010.80
2018-02-06T07:10:03.238Z,1010.82
2018-02-06T07:11:03.136Z,1010.80
2018-02-06T07:12:03.091Z,1010.74
2018-02-06T07:13:03.052Z,1010.74
2018-02-06T07:14:03.113Z,1010.76
2018-02-06T07:15:02.981Z,1010.75
2018-02-06T07:16:03.021Z,1010.71
2018-02-06T07:17:02.908Z,1010.71
2018-02-06T07:18:03.916Z,1010.72
2018-02-06T07:19:02.844Z,1010.71
2018-02-06T07:20:02.898Z,1010.68
2018-02-06T07:21:02.766Z,1010.69
2018-02-06T07:22:02.736Z,1010.71
2018-02-06T07:23:02.818Z,1010.76
2018-02-06T07:24:02.661Z,1010.75
2018-02-06T07:25:02.729Z,1010.72
2018-02-06T07:26:02.596Z,1010.69
2018-02-06T07:27:02.641Z,1010.66
2018-02-06T07:28:02.545Z,1010.68
2018-02-06T07:29:02.546Z,1010.68
2018-02-06T07:30:02.469Z,1010.69
2018-02-06T07:31:02.459Z,1010.70
2018-02-06T07:32:02.387Z,1010.67
2018-02-06T07:33:02.367Z,1010.62
2018-02-06T07:34:02.310Z,1010.57
2018-02-06T07:35:02.379Z,1010.60
2018-02-06T07:36:02.242Z,1010.61
2018-02-06T07:37:02.289Z,1010.59
2018-02-06T07:38:02.171Z,1010.58
2018-02-06T07:39:02.231Z,1010.51
2018-02-06T07:40:02.102Z,1010.55
2018-02-06T07:41:02.152Z,1010.59
2018-02-06T07:42:02.029Z,1010.58
2018-02-06T07:43:02.103Z,1010.55
2018-02-06T07:44:01.956Z,1010.57
2018-02-06T07:45:01.963Z,1010.62
2018-02-06T07:46:01.889Z,1010.64
2018-02-06T07:47:01.888Z,1010.63
2018-02-06T07:48:01.815Z,1010.61
2018-02-06T07:49:01.910Z,1010.63
2018-02-06T07:50:01.747Z,1010.57
2018-02-06T07:51:01.756Z,1010.55
2018-02-06T07:52:01.679Z,1010.55
2018-02-06T07:53:01.699Z,1010.58
2018-02-06T07:54:01.611Z,1010.59
2018-02-06T07:55:01.576Z,1010.61
2018-02-06T07:56:01.582Z,1010.63
2018-02-06T07:57:01.502Z,1010.64
2018-02-06T07:58:01.494Z,1010.68
2018-02-06T07:59:01.437Z,1010.64
2018-02-06T08:00:01.507Z,1010.64
2018-02-06T08:01:01.362Z,1010.65
2018-02-06T08:02:01.418Z,1010.64
2018-02-06T08:03:01.291Z,1010.64
2018-02-06T08:04:03.285Z,1010.66
2018-02-06T08:05:01.223Z,1010.63
2018-02-06T08:06:01.242Z,1010.64
2018-02-06T08:07:01.178Z,1010.57
2018-02-06T08:08:01.117Z,1010.56
2018-02-06T08:09:01.080Z,1010.59
2018-02-06T08:10:01.066Z,1010.59
2018-02-06T08:11:01.010Z,1010.53
2018-02-06T08:12:01.079Z,1010.57
2018-02-06T08:13:00.949Z,1010.53
2018-02-06T08:14:00.978Z,1010.52
2018-02-06T08:15:00.875Z,1010.48
2018-02-06T08:16:00.909Z,1010.51
2018-02-06T08:17:00.799Z,1010.49
2018-02-06T08:18:00.798Z,1010.50
2018-02-06T08:19:00.746Z,1010.53
2018-02-06T08:20:00.813Z,1010.49
2018-02-06T08:21:00.671Z,1010.51
2018-02-06T08:22:00.726Z,1010.49
2018-02-06T08:23:00.590Z,1010.47
2018-02-06T08:24:00.632Z,1010.47
2018-02-06T08:25:00.529Z,1010.47
2018-02-06T08:26:00.554Z,1010.49
2018-02-06T08:27:00.453Z,1010.42
2018-02-06T08:28:00.451Z,1010.41
2018-02-06T08:29:00.390Z,1010.43
2018-02-06T08:30:00.396Z,1010.42
2018-02-06T08:31:00.312Z,1010.43
2018-02-06T08:32:01.418Z,1010.38
2018-02-06T08:33:00.248Z,1010.38
2018-02-06T08:34:00.288Z,1010.40
2018-02-06T08:35:00.183Z,1010.38
2018-02-06T08:36:00.215Z,1010.34
2018-02-06T08:37:00.112Z,1010.37
2018-02-06T08:38:00.077Z,1010.30
2018-02-06T08:39:00.114Z,1010.33
2018-02-06T08:40:00.011Z,1010.27
2018-02-06T08:41:00.022Z,1010.32
2018-02-06T08:41:59.947Z,1010.32
2018-02-06T08:42:59.938Z,1010.27
2018-02-06T08:43:59.869Z,1010.26
2018-02-06T08:44:59.846Z,1010.24
2018-02-06T08:45:59.799Z,1010.24
2018-02-06T08:46:59.856Z,1010.26
2018-02-06T08:47:59.730Z,1010.23
2018-02-06T08:48:59.696Z,1010.22
2018-02-06T08:49:59.675Z,1010.18
2018-02-06T08:50:59.625Z,1010.18
2018-02-06T08:52:00.612Z,1010.20
2018-02-06T08:52:59.569Z,1010.18
2018-02-06T08:53:59.603Z,1010.14
2018-02-06T08:54:59.493Z,1010.20
2018-02-06T08:55:59.513Z,1010.21
2018-02-06T08:56:59.443Z,1010.19
2018-02-06T08:57:59.419Z,1010.15
2018-02-06T08:58:59.353Z,1010.14
2018-02-06T08:59:59.317Z,1010.14
2018-02-06T09:00:59.339Z,1010.12
2018-02-06T09:01:59.255Z,1010.13
2018-02-06T09:02:59.253Z,1010.15
2018-02-06T09:03:59.176Z,1010.10
2018-02-06T09:04:59.166Z,1010.14
2018-02-06T09:05:59.129Z,1010.09
2018-02-06T09:07:00.107Z,1010.09
2018-02-06T09:07:59.059Z,1010.10
2018-02-06T09:08:59.097Z,1010.09
2018-02-06T09:09:59.003Z,1010.05
2018-02-06T09:10:58.945Z,1010.05
2018-02-06T09:11:59.991Z,1010.05
2018-02-06T09:12:58.873Z,1010.02
2018-02-06T09:13:58.846Z,1010.05
2018-02-06T09:14:58.802Z,1010.01
2018-02-06T09:15:59.810Z,1010.00
2018-02-06T09:16:58.739Z,1009.99
2018-02-06T09:17:58.705Z,1009.99
2018-02-06T09:18:58.672Z,1009.96
2018-02-06T09:19:58.771Z,1009.99
2018-02-06T09:20:58.604Z,1010.01
2018-02-06T09:21:58.568Z,1010.01
2018-02-06T09:22:58.534Z,1010.03
2018-02-06T09:23:58.534Z,1010.03
2018-02-06T09:24:58.464Z,1010.02
2018-02-06T09:25:58.549Z,1010.04
2018-02-06T09:26:58.402Z,1010.02
2018-02-06T09:27:58.457Z,1009.98
2018-02-06T09:28:58.334Z,1009.99
2018-02-06T09:29:59.393Z,1009.97
2018-02-06T09:30:58.278Z,1009.95
2018-02-06T09:31:59.302Z,1009.96
2018-02-06T09:32:58.203Z,1009.96
2018-02-06T09:33:58.164Z,1009.91
2018-02-06T09:34:59.263Z,1009.96
2018-02-06T09:35:58.099Z,1009.91
2018-02-06T09:36:58.109Z,1009.96
2018-02-06T09:37:58.031Z,1009.93
2018-02-06T09:38:58.019Z,1009.90
2018-02-06T09:39:57.966Z,1009.90
2018-02-06T09:40:58.042Z,1009.88
2018-02-06T09:41:57.905Z,1009.86
2018-02-06T09:42:57.947Z,1009.88
2018-02-06T09:43:57.831Z,1009.87
2018-02-06T09:44:57.855Z,1009.87
2018-02-06T09:45:57.778Z,1009.84
2018-02-06T09:46:57.768Z,1009.83
2018-02-06T09:47:57.697Z,1009.82
2018-02-06T09:48:57.785Z,1009.86
2018-02-06T09:49:57.629Z,1009.84
2018-02-06T09:50:57.700Z,1009.84
2018-02-06T09:51:57.569Z,1009.78
2018-02-06T09:52:57.531Z,1009.80
2018-02-06T09:53:57.621Z,1009.75
2018-02-06T09:54:57.472Z,1009.80
2018-02-06T09:55:57.529Z,1009.78
2018-02-06T09:56:57.399Z,1009.76
2018-02-06T09:58:02.047Z,1009.79
2018-02-06T09:58:57.339Z,1009.77
2018-02-06T09:59:57.363Z,1009.76
2018-02-06T10:00:57.262Z,1009.74
2018-02-06T10:01:57.264Z,1009.74
2018-02-06T10:02:57.200Z,1009.69
2018-02-06T10:03:57.276Z,1009.70
2018-02-06T10:04:57.135Z,1009.72
2018-02-06T10:05:57.106Z,1009.76
2018-02-06T10:06:57.093Z,1009.77
2018-02-06T10:07:57.030Z,1009.73
2018-02-06T10:08:57.101Z,1009.80
2018-02-06T10:09:56.965Z,1009.80
2018-02-06T10:10:58.040Z,1009.71
2018-02-06T10:11:56.906Z,1009.75
2018-02-06T10:13:01.593Z,1009.67
2018-02-06T10:13:56.838Z,1009.70
2018-02-06T10:14:56.894Z,1009.71
2018-02-06T10:15:56.772Z,1009.69
2018-02-06T10:16:56.747Z,1009.66
2018-02-06T10:17:56.812Z,1009.70
2018-02-06T10:18:56.718Z,1009.68
2018-02-06T10:19:56.725Z,1009.65
2018-02-06T10:20:56.626Z,1009.68
2018-02-06T10:21:56.638Z,1009.67
2018-02-06T10:22:56.539Z,1009.65
2018-02-06T10:23:56.518Z,1009.65
2018-02-06T10:24:56.553Z,1009.65
2018-02-06T10:25:56.462Z,1009.59
2018-02-06T10:26:56.409Z,1009.56
2018-02-06T10:27:56.477Z,1009.55
2018-02-06T10:28:56.349Z,1009.58
2018-02-06T10:29:56.386Z,1009.58
2018-02-06T10:30:56.279Z,1009.52
2018-02-06T10:31:57.319Z,1009.49
2018-02-06T10:32:56.216Z,1009.49
2018-02-06T10:33:56.207Z,1009.46
2018-02-06T10:34:56.151Z,1009.44
2018-02-06T10:35:56.221Z,1009.42
2018-02-06T10:36:56.090Z,1009.35
2018-02-06T10:37:56.131Z,1009.34
2018-02-06T10:38:56.027Z,1009.34
2018-02-06T10:39:57.063Z,1009.30
2018-02-06T10:40:55.964Z,1009.33
2018-02-06T10:41:55.948Z,1009.37
2018-02-06T10:42:55.892Z,1009.36
2018-02-06T10:43:55.959Z,1009.32
2018-02-06T10:44:55.828Z,1009.27
2018-02-06T10:45:55.873Z,1009.26
2018-02-06T10:46:55.770Z,1009.25
2018-02-06T10:47:55.788Z,1009.21
2018-02-06T10:48:55.706Z,1009.17
2018-02-06T10:49:55.668Z,1009.19
2018-02-06T10:50:55.707Z,1009.18
2018-02-06T10:51:55.599Z,1009.15
2018-02-06T10:52:56.640Z,1009.19
2018-02-06T10:53:55.541Z,1009.15
2018-02-06T10:54:55.630Z,1009.23
2018-02-06T10:55:55.479Z,1009.24
2018-02-06T10:56:55.542Z,1009.26
2018-02-06T10:57:55.410Z,1009.32
2018-02-06T10:58:56.476Z,1009.31
2018-02-06T10:59:55.342Z,1009.30
2018-02-06T11:00:56.403Z,1009.29
2018-02-06T11:01:55.281Z,1009.28
2018-02-06T11:02:55.271Z,1009.30
2018-02-06T11:03:55.216Z,1009.31
2018-02-06T11:04:55.286Z,1009.30
2018-02-06T11:05:55.154Z,1009.33
2018-02-06T11:06:55.212Z,1009.35
2018-02-06T11:07:55.131Z,1009.36
2018-02-06T11:08:55.107Z,1009.33
2018-02-06T11:09:55.028Z,1009.33
2018-02-06T11:10:55.020Z,1009.34
2018-02-06T11:11:54.958Z,1009.32
2018-02-06T11:12:55.032Z,1009.32
2018-02-06T11:13:54.900Z,1009.28
2018-02-06T11:14:54.864Z,1009.29
2018-02-06T11:15:54.861Z,1009.30
2018-02-06T11:16:54.807Z,1009.24
2018-02-06T11:17:54.772Z,1009.17
2018-02-06T11:18:54.734Z,1009.17
2018-02-06T11:19:54.785Z,1009.22
2018-02-06T11:20:54.674Z,1009.22
2018-02-06T11:21:54.642Z,1009.14
2018-02-06T11:22:54.692Z,1009.22
2018-02-06T11:23:54.582Z,1009.22
2018-02-06T11:24:54.543Z,1009.17
2018-02-06T11:25:54.617Z,1009.15
2018-02-06T11:26:54.478Z,1009.15
2018-02-06T11:27:54.450Z,1009.16
2018-02-06T11:28:54.525Z,1009.15
2018-02-06T11:29:54.391Z,1009.14
2018-02-06T11:30:55.459Z,1009.22
2018-02-06T11:31:54.327Z,1009.18
2018-02-06T11:32:54.283Z,1009.15
2018-02-06T11:33:54.357Z,1009.16
2018-02-06T11:34:54.225Z,1009.09
2018-02-06T11:35:54.188Z,1009.06
2018-02-06T11:36:54.156Z,1009.06
2018-02-06T11:37:54.136Z,1009.03
2018-02-06T11:38:54.099Z,1008.99
2018-02-06T11:39:54.099Z,1009.03
2018-02-06T11:40:54.027Z,1008.99
2018-02-06T11:41:53.998Z,1008.97
2018-02-06T11:42:53.968Z,1008.96
2018-02-06T11:43:55.043Z,1008.91
2018-02-06T11:44:53.903Z,1008.94
2018-02-06T11:45:53.931Z,1008.92
2018-02-06T11:46:53.848Z,1008.91
2018-02-06T11:47:53.806Z,1008.83
2018-02-06T11:48:53.773Z,1008.87
2018-02-06T11:49:53.737Z,1008.85
2018-02-06T11:50:53.713Z,1008.85
2018-02-06T11:51:53.676Z,1008.81
2018-02-06T11:52:54.701Z,1008.83
2018-02-06T11:53:53.615Z,1008.82
2018-02-06T11:54:54.603Z,1008.84
2018-02-06T11:55:53.541Z,1008.81
2018-02-06T11:56:53.595Z,1008.83
2018-02-06T11:57:53.668Z,1008.76
2018-02-06T11:58:53.506Z,1008.71
2018-02-06T11:59:53.433Z,1008.70
2018-02-06T12:00:53.392Z,1008.70
2018-02-06T12:01:53.355Z,1008.70
2018-02-06T12:02:53.318Z,1008.67
2018-02-06T12:03:58.045Z,1008.64
2018-02-06T12:04:53.255Z,1008.68
2018-02-06T12:05:54.268Z,1008.71
2018-02-06T12:06:53.206Z,1008.68
2018-02-06T12:07:53.256Z,1008.66
2018-02-06T12:08:53.131Z,1008.63
2018-02-06T12:09:53.105Z,1008.61
2018-02-06T12:10:53.065Z,1008.55
2018-02-06T12:11:53.030Z,1008.52
2018-02-06T12:12:52.999Z,1008.50
2018-02-06T12:13:52.969Z,1008.49
2018-02-06T12:14:52.934Z,1008.50
2018-02-06T12:15:53.002Z,1008.47
2018-02-06T12:16:52.869Z,1008.50
2018-02-06T12:17:52.916Z,1008.48
2018-02-06T12:18:52.825Z,1008.45
2018-02-06T12:19:53.850Z,1008.48
2018-02-06T12:20:52.742Z,1008.42
2018-02-06T12:21:52.712Z,1008.42
2018-02-06T12:22:52.674Z,1008.44
2018-02-06T12:23:52.643Z,1008.33
2018-02-06T12:24:52.618Z,1008.34
2018-02-06T12:25:52.586Z,1008.37
2018-02-06T12:26:52.554Z,1008.32
2018-02-06T12:27:52.571Z,1008.29
2018-02-06T12:28:52.486Z,1008.25
2018-02-06T12:29:52.456Z,1008.18
2018-02-06T12:30:53.511Z,1008.19
2018-02-06T12:31:52.391Z,1008.15
2018-02-06T12:32:52.356Z,1008.19
2018-02-06T12:33:52.407Z,1008.16
2018-02-06T12:34:52.288Z,1008.17
2018-02-06T12:35:52.271Z,1008.13
2018-02-06T12:36:52.231Z,1008.14
2018-02-06T12:37:52.208Z,1008.12
2018-02-06T12:38:54.184Z,1008.13
2018-02-06T12:39:52.135Z,1008.16
2018-02-06T12:40:52.107Z,1008.21
2018-02-06T12:41:52.154Z,1008.21
2018-02-06T12:42:52.043Z,1008.18
2018-02-06T12:43:52.069Z,1008.18
2018-02-06T12:44:51.970Z,1008.13
2018-02-06T12:45:56.592Z,1008.16
2018-02-06T12:46:51.905Z,1008.10
2018-02-06T12:47:51.901Z,1008.11
2018-02-06T12:48:51.842Z,1008.11
2018-02-06T12:49:52.934Z,1008.07
2018-02-06T12:50:51.794Z,1008.06
2018-02-06T12:51:52.841Z,1008.03
2018-02-06T12:52:51.715Z,1008.01
2018-02-06T12:53:54.524Z,1007.99
2018-02-06T12:54:51.725Z,1007.97
2018-02-06T12:55:51.630Z,1008.00
2018-02-06T12:56:51.632Z,1007.97
2018-02-06T12:57:51.560Z,1007.94
2018-02-06T12:58:51.546Z,1007.98
2018-02-06T12:59:51.504Z,1007.98
2018-02-06T13:00:51.560Z,1007.97
2018-02-06T13:01:51.428Z,1007.93
2018-02-06T13:02:51.458Z,1007.95
2018-02-06T13:03:51.378Z,1007.92
2018-02-06T13:04:51.367Z,1007.94
2018-02-06T13:05:51.297Z,1007.94
2018-02-06T13:06:51.380Z,1007.97
2018-02-06T13:07:51.231Z,1007.95
2018-02-06T13:08:51.349Z,1007.96
2018-02-06T13:09:51.169Z,1007.95
2018-02-06T13:10:51.206Z,1007.96
2018-02-06T13:11:51.140Z,1007.94
2018-02-06T13:12:53.159Z,1007.93
2018-02-06T13:13:51.041Z,1007.93
2018-02-06T13:14:52.048Z,1007.86
2018-02-06T13:15:50.978Z,1007.87
2018-02-06T13:16:51.046Z,1007.89
2018-02-06T13:17:50.913Z,1007.90
2018-02-06T13:18:50.960Z,1007.89
2018-02-06T13:19:50.852Z,1007.91
2018-02-06T13:20:51.887Z,1007.88
2018-02-06T13:21:50.785Z,1007.86
2018-02-06T13:22:50.782Z,1007.80
2018-02-06T13:23:50.724Z,1007.75
2018-02-06T13:24:50.797Z,1007.68
2018-02-06T13:25:50.657Z,1007.66
2018-02-06T13:26:50.856Z,1007.64
2018-02-06T13:27:50.590Z,1007.58
2018-02-06T13:28:50.717Z,1007.57
2018-02-06T13:29:50.528Z,1007.58
2018-02-06T13:30:51.644Z,1007.55
2018-02-06T13:31:50.459Z,1007.57
2018-02-06T13:32:50.526Z,1007.54
2018-02-06T13:33:50.395Z,1007.51
2018-02-06T13:34:50.436Z,1007.52
2018-02-06T13:35:50.341Z,1007.45
2018-02-06T13:36:50.392Z,1007.48
2018-02-06T13:37:50.265Z,1007.44
2018-02-06T13:38:50.260Z,1007.42
2018-02-06T13:39:50.205Z,1007.43
2018-02-06T13:40:50.285Z,1007.43
2018-02-06T13:41:50.142Z,1007.37
2018-02-06T13:42:51.206Z,1007.44
2018-02-06T13:43:50.071Z,1007.45
2018-02-06T13:44:50.094Z,1007.46
2018-02-06T13:45:50.011Z,1007.46
2018-02-06T13:46:50.003Z,1007.45
2018-02-06T13:47:49.940Z,1007.44
2018-02-06T13:48:50.016Z,1007.40
2018-02-06T13:49:49.873Z,1007.45
2018-02-06T13:50:49.842Z,1007.42
2018-02-06T13:51:49.816Z,1007.42
2018-02-06T13:52:49.832Z,1007.41
2018-02-06T13:53:49.803Z,1007.41
2018-02-06T13:54:51.821Z,1007.41
2018-02-06T13:55:49.681Z,1007.41
2018-02-06T13:56:49.783Z,1007.38
2018-02-06T13:57:49.613Z,1007.39
2018-02-06T13:58:49.769Z,1007.37
2018-02-06T13:59:49.551Z,1007.35
2018-02-06T14:00:49.598Z,1007.39
2018-02-06T14:01:49.490Z,1007.40